Pagina principale
METAR-TAF:

METAR-TAF

Aeroporti :

Aeroporto di Atene-Eleftherios Venizelos

Atene, Grecia

latitudine: 37-56N, longitudine: 023-56E, altezza: 94 m

Osservazione

Il bollettino è stato emesso 38 minuti fa, alle 12:20 UTC
Vento 17 kt da est/nord-est
Temperature 31°C
Umidità 38%
Pressione 1010 hPa
Visibilità 10 km o più
Poco nuvoloso ad un'altezza di 5000 ft

METAR: LGAV 151220Z 06017KT 9999 FEW050 31/15 Q1010 NOSIG

Ora: 15:58 (12:58 UTC)

Previsione

Il bollettino è stato emesso 1 ora e 58 minuti fa, alle 11:00 UTC
Previsione valida dal 15 alle 12 UTC al 16 alle 12 UTC
Vento 20 kt da nord-est
Visibilità 10 km o più
Poco nuvoloso ad un'altezza di 2500 ft
Evoluzione graduale
dal 15 alle 19 UTC al 15 alle 21 UTC
Vento 10 kt da nord/nord-ovest
Evoluzione graduale
dal 16 alle 04 UTC al 16 alle 06 UTC
Vento 18 kt da nord

TAF: LGAV 151100Z 1512/1612 04020KT 9999 FEW025 BECMG 1519/1521 33010KT BECMG 1604/1606 36018KT

Osservazioni e previsioni meteorologiche di più di 4000 aeroporti (messaggi METAR e TAF).

Le stazioni disponibili sono rappresentate dai dischi gialli e rossi sulla carta.

Puntare il mouse per vedere il nome della stazione.

Clicca sopra per visualizzare le osservazioni e previsioni meteorologiche.

Per cambiare la mappa : fare clic sui pulsanti verdi con una croce nera per ingrandire, il pulsante verde con un trattino per diminuire, o sulla freccia verde per le mappe adiacenti.


METAR-TAF: